Time;durP1;ratioP1;P1;durP2;ratioP2;P2;SDS_P1;SDS_P2;PMS_P1;PMS_P2;Temp;Humidity;BMP_temperature;BMP_pressure;BME280_temperature;BME280_humidity;BME280_pressure;Samples;Min_cycle;Max_cycle;Signal;HPM_P1;HPM_P2
2022/01/26 00:06:45;;;;;;;67.20;43.38;;;;;;;-2.63;77.35;100451.48;1596354;88;21089;-71
2022/01/26 00:09:13;;;;;;;64.83;41.00;;;;;;;-2.60;77.24;100453.42;1621738;87;21477;-70
2022/01/26 00:11:40;;;;;;;64.07;40.10;;;;;;;-2.58;77.32;100449.38;1651922;85;21641;-70
2022/01/26 00:14:11;;;;;;;65.90;40.07;;;;;;;-2.53;77.30;100450.40;1644237;86;21062;-73
2022/01/26 00:16:40;;;;;;;71.37;43.63;;;;;;;-2.91;77.12;100388.05;1639498;86;21554;-71
2022/01/26 00:19:11;;;;;;;62.77;40.53;;;;;;;-2.57;77.22;100447.16;1635386;86;21102;-69
2022/01/26 00:21:44;;;;;;;64.43;42.43;;;;;;;-2.56;77.45;100444.45;1637504;86;21087;-69
2022/01/26 00:24:37;;;;;;;70.00;40.47;;;;;;;-2.54;77.59;100443.05;1635363;86;21069;-69
2022/01/26 00:29:29;;;;;;;61.60;40.90;;;;;;;-2.50;77.75;100434.55;1635980;86;21049;-71
2022/01/26 00:40:23;;;;;;;65.30;41.00;;;;;;;-2.44;78.09;100425.83;1651010;85;21561;-70
2022/01/26 00:42:46;;;;;;;61.17;39.83;;;;;;;-2.40;78.11;100427.77;1656965;85;21120;-71
2022/01/26 00:45:11;;;;;;;61.50;39.67;;;;;;;-2.38;78.21;100424.58;1650726;85;21012;-70
2022/01/26 00:47:37;;;;;;;69.70;43.00;;;;;;;-2.33;78.15;100417.76;1641806;85;21006;-70
2022/01/26 00:50:10;;;;;;;76.57;43.23;;;;;;;-2.31;78.16;100418.48;1639257;85;21050;-70
2022/01/26 00:52:39;;;;;;;63.43;38.10;;;;;;;-2.30;78.20;100415.75;1635288;85;21525;-70
2022/01/26 00:55:09;;;;;;;61.53;38.07;;;;;;;-2.28;78.21;100416.51;1639342;85;21077;-68
2022/01/26 00:57:35;;;;;;;60.60;39.77;;;;;;;-2.27;78.24;100412.94;1646062;85;21066;-69
2022/01/26 01:00:06;;;;;;;67.17;40.58;;;;;;;-2.26;78.12;100417.23;1652501;85;21037;-67
2022/01/26 01:02:33;;;;;;;65.60;42.40;;;;;;;-2.31;77.91;100413.27;1646708;85;21086;-69
2022/01/26 01:05:03;;;;;;;;;;;;;;;-2.38;77.94;100408.44;1644325;85;21029;-68
2022/01/26 01:07:32;;;;;;;;;;;;;;;-2.40;78.26;100410.31;1610996;88;20449;-69
2022/01/26 01:09:55;;;;;;;63.42;36.58;;;;;;;-2.52;78.44;100408.55;1596081;88;20158;-68
2022/01/26 01:12:22;;;;;;;65.97;40.35;;;;;;;-2.64;78.79;100403.65;1581976;89;21650;-68
2022/01/26 01:14:49;;;;;;;69.40;41.80;;;;;;;-2.68;79.00;100406.58;1645306;85;21571;-69
2022/01/26 01:17:24;;;;;;;68.60;42.37;;;;;;;-2.66;79.33;100392.95;1638321;85;21069;-69
2022/01/26 01:20:01;;;;;;;59.97;36.40;;;;;;;-2.64;79.52;100392.38;1645538;85;21021;-70
2022/01/26 01:22:31;;;;;;;60.87;37.97;;;;;;;-2.65;79.56;100390.25;1641752;84;21101;-68
2022/01/26 01:30:21;;;;;;;71.43;43.03;;;;;;;-2.58;80.08;100377.17;1684389;84;21014;-69
2022/01/26 01:32:39;;;;;;;72.40;42.23;;;;;;;-2.52;80.03;100375.92;1672193;84;21601;-68
2022/01/26 01:35:07;;;;;;;74.87;45.07;;;;;;;-2.47;80.18;100368.59;1657422;83;21125;-68
2022/01/26 01:37:30;;;;;;;78.13;46.40;;;;;;;-2.42;80.21;100366.99;1674516;84;21066;-68
2022/01/26 01:39:56;;;;;;;74.37;46.92;;;;;;;-2.39;79.95;100366.31;1671612;84;21066;-69
2022/01/26 01:42:22;;;;;;;78.37;47.08;;;;;;;-2.38;79.85;100363.23;1674278;84;21097;-69
2022/01/26 01:44:48;;;;;;;80.32;44.65;;;;;;;-2.41;79.69;100364.28;1666833;84;21066;-71
2022/01/26 01:47:14;;;;;;;71.25;40.65;;;;;;;-2.42;79.77;100356.07;1675171;84;21035;-69
2022/01/26 01:49:40;;;;;;;75.22;47.88;;;;;;;-2.43;79.83;100347.03;1676252;84;21050;-70
2022/01/26 01:52:13;;;;;;;72.55;44.70;;;;;;;-2.44;79.88;100346.20;1674859;84;21109;-71
2022/01/26 01:54:38;;;;;;;70.07;41.47;;;;;;;-2.39;80.18;100340.21;1676743;84;21069;-71
2022/01/26 01:57:05;;;;;;;75.50;44.23;;;;;;;-2.33;80.13;100339.43;1638308;84;21177;-71
2022/01/26 01:59:33;;;;;;;67.00;40.37;;;;;;;-2.31;79.94;100339.68;1628805;86;21015;-70
2022/01/26 02:02:01;;;;;;;74.60;44.00;;;;;;;-2.26;80.00;100333.68;1617907;87;21886;-70
2022/01/26 02:04:27;;;;;;;80.23;47.23;;;;;;;-2.20;79.88;100338.95;1640917;86;21028;-70
2022/01/26 02:06:53;;;;;;;79.00;46.55;;;;;;;-2.20;79.67;100334.55;1625921;86;21600;-71
2022/01/26 02:09:20;;;;;;;73.40;43.85;;;;;;;-2.14;79.76;100337.21;1630161;86;21582;-71
2022/01/26 02:11:50;;;;;;;77.15;47.38;;;;;;;-2.09;79.65;100335.13;1639085;86;21494;-69
2022/01/26 02:14:31;;;;;;;81.97;51.00;;;;;;;-2.06;79.39;100338.80;1635779;86;21039;-71
2022/01/26 02:16:55;;;;;;;92.83;56.63;;;;;;;-2.02;79.24;100334.20;1630594;86;21491;-70
2022/01/26 03:00:11;;;;;;;73.67;43.53;;;;;;;-1.99;79.31;100340.05;1687648;83;21558;-70
2022/01/26 03:04:54;;;;;;;68.73;41.37;;;;;;;-1.97;79.28;100345.17;1654175;85;21487;-70
2022/01/26 03:10:02;;;;;;;69.57;42.67;;;;;;;-2.05;79.49;100347.50;1611680;85;21647;-69
2022/01/26 03:12:32;;;;;;;73.80;41.53;;;;;;;-2.10;79.83;100341.75;1662860;84;21105;-69
2022/01/26 03:14:55;;;;;;;72.17;43.83;;;;;;;-2.14;80.38;100342.91;1675054;84;21053;-69
2022/01/26 03:19:51;;;;;;;73.37;43.00;;;;;;;-2.17;80.88;100349.16;1677415;84;21536;-69
2022/01/26 03:35:48;;;;;;;72.40;41.50;;;;;;;-2.06;81.91;100347.12;1672476;84;20997;-70
2022/01/26 03:38:21;;;;;;;64.53;40.47;;;;;;;-2.03;81.98;100350.36;1678989;84;21030;-73
2022/01/26 03:40:42;;;;;;;68.43;40.73;;;;;;;-2.05;81.92;100356.16;1680229;84;21065;-70
2022/01/26 03:43:08;;;;;;;65.20;41.90;;;;;;;-2.08;82.16;100351.62;1670662;84;21106;-69
2022/01/26 03:45:34;;;;;;;70.05;40.25;;;;;;;-2.07;82.24;100350.66;1672885;84;21595;-65
2022/01/26 03:48:00;;;;;;;60.52;38.75;;;;;;;-2.02;82.58;100351.19;1638645;86;21074;-65
2022/01/26 03:50:27;;;;;;;65.47;38.25;;;;;;;-1.95;82.73;100352.43;1633615;86;21022;-66
2022/01/26 03:52:53;;;;;;;67.32;41.40;;;;;;;-1.86;82.73;100358.80;1602278;88;21090;-66
2022/01/26 03:55:19;;;;;;;68.75;39.65;;;;;;;-1.77;82.77;100354.23;1585571;87;21133;-65
2022/01/26 03:57:45;;;;;;;69.72;40.15;;;;;;;-1.68;82.67;100356.65;1614920;87;21102;-68
2022/01/26 04:00:13;;;;;;;60.03;37.75;;;;;;;-1.62;82.32;100348.36;1615813;86;21042;-69
2022/01/26 04:02:40;;;;;;;65.80;38.67;;;;;;;-1.56;82.21;100357.09;1634099;86;21050;-69
2022/01/26 04:05:11;;;;;;;59.90;36.98;;;;;;;-1.50;81.99;100357.95;1617742;87;21070;-69
2022/01/26 04:07:36;;;;;;;64.13;36.93;;;;;;;-1.48;81.75;100359.98;1621807;87;21580;-71
2022/01/26 04:10:14;;;;;;;70.47;39.10;;;;;;;-1.46;81.49;100360.70;1643248;86;21570;-69
2022/01/26 04:12:34;;;;;;;64.23;35.90;;;;;;;-1.50;81.28;100360.57;1653082;85;21247;-69
2022/01/26 04:15:09;;;;;;;60.90;37.63;;;;;;;-1.50;81.50;100364.49;1665202;85;21074;-70
2022/01/26 04:17:29;;;;;;;68.10;38.87;;;;;;;-1.45;81.62;100358.91;1660766;85;21145;-71
2022/01/26 04:19:57;;;;;;;59.58;36.88;;;;;;;-1.41;81.54;100359.09;1662440;85;21044;-71
2022/01/26 04:22:31;;;;;;;55.67;36.17;;;;;;;-1.35;81.32;100361.73;1660483;84;21672;-70
2022/01/26 04:24:54;;;;;;;59.17;37.93;;;;;;;-1.34;81.19;100362.08;1660460;85;21114;-67
2022/01/26 04:27:26;;;;;;;66.33;38.37;;;;;;;-1.31;81.01;100357.94;1672612;85;21106;-70
2022/01/26 04:29:49;;;;;;;58.60;34.67;;;;;;;-1.33;80.77;100363.76;1658503;85;21246;-69
2022/01/26 04:32:17;;;;;;;65.63;38.63;;;;;;;-1.35;80.90;100361.25;1668066;85;21075;-69
2022/01/26 04:34:47;;;;;;;56.63;35.10;;;;;;;-1.37;80.85;100366.58;1658488;84;20982;-68
2022/01/26 04:37:27;;;;;;;60.40;36.33;;;;;;;-1.38;80.94;100364.90;1658719;85;21100;-70
2022/01/26 04:39:52;;;;;;;62.47;36.47;;;;;;;-1.41;81.09;100362.52;1658646;85;21060;-67
2022/01/26 04:42:19;;;;;;;59.47;35.70;;;;;;;-1.46;80.85;100358.09;1656594;85;22562;-67
2022/01/26 04:44:58;;;;;;;59.97;35.40;;;;;;;-1.52;81.09;100358.54;1656827;85;21027;-69
2022/01/26 04:47:09;;;;;;;55.83;34.23;;;;;;;-1.53;81.73;100364.70;1663290;85;21101;-66
2022/01/26 04:49:35;;;;;;;64.40;38.38;;;;;;;-1.55;81.90;100361.84;1662192;85;21549;-66
2022/01/26 04:52:03;;;;;;;57.03;35.33;;;;;;;-1.58;81.83;100361.12;1665086;85;21093;-68
2022/01/26 04:54:30;;;;;;;58.53;35.80;;;;;;;-1.59;82.04;100363.36;1663561;85;21090;-67
2022/01/26 04:56:56;;;;;;;;;;;;;;;-1.61;82.14;100362.63;1661995;85;21045;-68
2022/01/26 04:59:22;;;;;;;55.60;33.50;;;;;;;-1.65;82.53;100368.20;1657461;85;20469;-67
2022/01/26 05:01:48;;;;;;;53.98;31.95;;;;;;;-1.73;82.69;100370.50;1668577;85;21011;-67
2022/01/26 05:04:14;;;;;;;66.77;36.80;;;;;;;-1.76;82.91;100380.72;1645660;85;21046;-66
2022/01/26 05:06:41;;;;;;;60.88;37.08;;;;;;;-1.78;82.92;100375.59;1670067;85;21039;-68
2022/01/26 05:09:07;;;;;;;59.98;35.38;;;;;;;-1.77;83.10;100370.73;1665431;85;21547;-71
2022/01/26 05:11:40;;;;;;;58.02;35.43;;;;;;;-1.74;83.44;100376.69;1664375;85;21541;-67
2022/01/26 05:14:05;;;;;;;61.23;36.20;;;;;;;-1.70;83.21;100380.75;1653469;85;21918;-68
2022/01/26 05:16:32;;;;;;;;;;;;;;;-1.66;83.02;100378.28;1668365;85;20982;-68
2022/01/26 05:18:58;;;;;;;61.23;32.10;;;;;;;-1.66;82.92;100373.88;1664715;85;20154;-69
2022/01/26 05:21:26;;;;;;;;;;;;;;;-1.71;82.81;100386.91;1667661;85;20958;-69
2022/01/26 05:23:53;;;;;;;65.42;34.08;;;;;;;-1.74;82.73;100386.66;1634833;86;20209;-67
2022/01/26 05:26:20;;;;;;;59.30;33.97;;;;;;;-1.83;82.72;100387.30;1637731;86;21081;-68
2022/01/26 05:28:46;;;;;;;61.85;35.88;;;;;;;-1.86;82.79;100389.67;1638146;86;21295;-69
2022/01/26 05:31:13;;;;;;;51.87;30.47;;;;;;;-1.84;82.88;100394.80;1636887;86;21053;-69
2022/01/26 05:33:39;;;;;;;61.70;36.15;;;;;;;-1.86;82.99;100389.67;1620663;87;21592;-68
2022/01/26 05:36:06;;;;;;;61.48;35.30;;;;;;;-1.88;82.97;100394.17;1619423;87;21152;-68
2022/01/26 05:38:32;;;;;;;56.08;32.50;;;;;;;-1.93;82.80;100396.74;1608194;87;21081;-68
2022/01/26 05:41:01;;;;;;;61.80;36.03;;;;;;;-1.97;82.83;100402.17;1618604;86;21159;-69
2022/01/26 05:43:30;;;;;;;57.07;31.60;;;;;;;-1.99;82.91;100401.92;1670369;84;21482;-67
2022/01/26 05:46:02;;;;;;;66.13;35.10;;;;;;;-1.97;82.87;100406.56;1678649;83;21046;-66
2022/01/26 05:48:25;;;;;;;64.57;34.60;;;;;;;-1.96;82.90;100409.08;1695508;83;21005;-68
2022/01/26 05:50:56;;;;;;;55.92;32.85;;;;;;;-1.92;82.74;100417.98;1689773;83;21023;-68
2022/01/26 05:55:31;;;;;;;56.33;31.97;;;;;;;-1.97;82.93;100416.53;1803631;77;22229;-68
2022/01/26 05:57:57;;;;;;;63.90;36.73;;;;;;;-2.01;82.72;100422.92;1700827;83;21102;-69
2022/01/26 06:00:23;;;;;;;59.30;33.60;;;;;;;-1.99;82.68;100424.95;1699242;83;21525;-69
2022/01/26 06:02:49;;;;;;;69.20;38.80;;;;;;;-1.97;82.73;100420.94;1696720;83;20996;-67
2022/01/26 06:05:15;;;;;;;62.95;35.68;;;;;;;-1.98;82.68;100427.09;1710791;83;21472;-69
2022/01/26 06:07:41;;;;;;;65.20;37.05;;;;;;;-1.96;82.86;100429.12;1688480;83;21078;-69
2022/01/26 06:10:08;;;;;;;65.50;39.33;;;;;;;-1.90;82.79;100431.33;1703319;83;20983;-70
2022/01/26 06:12:34;;;;;;;59.83;35.40;;;;;;;-1.88;82.72;100432.54;1695532;83;21104;-69
2022/01/26 06:15:03;;;;;;;87.45;50.52;;;;;;;-1.83;82.60;100427.36;1681913;83;21062;-68
2022/01/26 06:17:31;;;;;;;55.20;34.07;;;;;;;-1.82;82.25;100424.27;1673152;83;21008;-68
2022/01/26 06:19:57;;;;;;;59.58;35.75;;;;;;;-1.83;82.04;100428.66;1677589;83;21047;-69
2022/01/26 06:22:23;;;;;;;48.70;29.23;;;;;;;-1.86;81.82;100431.48;1672491;83;21090;-68
2022/01/26 06:24:49;;;;;;;57.20;34.92;;;;;;;-1.86;81.64;100436.70;1656429;84;21583;-68
2022/01/26 06:27:15;;;;;;;56.73;35.15;;;;;;;-1.86;81.60;100432.78;1661985;84;21051;-69
2022/01/26 06:29:42;;;;;;;59.27;33.98;;;;;;;-1.87;81.83;100428.48;1660365;84;21025;-68
2022/01/26 06:32:09;;;;;;;72.10;39.55;;;;;;;-1.82;81.85;100434.23;1673398;84;21544;-69
2022/01/26 06:34:39;;;;;;;;;;;;;;;-1.78;81.48;100434.87;1714661;81;21512;-68
2022/01/26 06:37:04;;;;;;;65.53;33.90;;;;;;;-1.78;81.41;100438.30;1740674;81;20465;-68
2022/01/26 06:39:30;;;;;;;59.20;35.83;;;;;;;-1.84;81.30;100434.81;1733020;81;21024;-69
2022/01/26 06:41:56;;;;;;;54.70;30.70;;;;;;;-1.82;81.38;100439.47;1735185;82;21076;-68
2022/01/26 06:44:29;;;;;;;57.10;32.13;;;;;;;-1.82;81.34;100444.69;1728809;81;21154;-69
2022/01/26 06:47:05;;;;;;;55.50;31.57;;;;;;;-1.85;81.03;100454.03;1721019;83;21503;-69
2022/01/26 06:51:52;;;;;;;64.67;34.73;;;;;;;-1.81;81.14;100458.58;1699818;83;21069;-69
2022/01/26 06:54:20;;;;;;;59.67;34.67;;;;;;;-1.84;80.83;100454.41;1701159;83;21066;-75
2022/01/26 06:56:45;;;;;;;64.63;36.90;;;;;;;-1.87;80.55;100466.85;1746641;80;20962;-72
2022/01/26 06:59:12;;;;;;;58.33;32.80;;;;;;;-1.95;80.59;100473.91;1756608;80;21093;-73
2022/01/26 07:01:41;;;;;;;60.53;35.23;;;;;;;-2.03;80.63;100472.30;1722819;80;21557;-72
2022/01/26 07:04:07;;;;;;;56.03;31.73;;;;;;;-2.03;80.88;100482.75;1710605;82;21021;-72
2022/01/26 07:06:34;;;;;;;54.50;31.97;;;;;;;-2.03;81.16;100485.36;1721806;82;21057;-69
2022/01/26 07:09:00;;;;;;;;;;;;;;;-1.99;80.92;100485.52;1716867;82;21030;-69
2022/01/26 07:11:29;;;;;;;60.13;32.57;;;;;;;-1.95;80.91;100484.36;1720175;81;20442;-69
2022/01/26 07:13:58;;;;;;;50.90;29.07;;;;;;;-1.98;80.80;100491.95;1702366;82;21515;-71
2022/01/26 07:21:46;;;;;;;60.05;32.15;;;;;;;-1.92;80.22;100488.08;1608068;87;21155;-69
2022/01/26 07:24:11;;;;;;;49.35;29.25;;;;;;;-1.99;80.36;100506.41;1690828;83;21064;-70
2022/01/26 07:26:38;;;;;;;50.60;30.62;;;;;;;-1.98;80.32;100498.48;1717019;82;21125;-71
2022/01/26 07:29:11;;;;;;;49.03;26.30;;;;;;;-1.97;80.54;100500.13;1708380;82;21073;-68
2022/01/26 07:31:36;;;;;;;55.47;31.30;;;;;;;-1.99;80.42;100509.85;1716549;82;21098;-71
2022/01/26 07:34:02;;;;;;;57.57;29.67;;;;;;;-2.08;80.14;100496.10;1693596;80;21593;-69
2022/01/26 07:36:28;;;;;;;49.77;26.85;;;;;;;-2.02;80.36;100517.06;1676306;83;21502;-68
2022/01/26 07:39:05;;;;;;;46.05;26.93;;;;;;;-2.06;80.56;100519.52;1688346;83;21097;-73
2022/01/26 07:41:23;;;;;;;48.03;27.43;;;;;;;-2.07;80.72;100523.05;1679443;83;21615;-74
2022/01/26 07:43:49;;;;;;;48.08;28.62;;;;;;;-2.06;80.72;100522.13;1679829;83;21581;-77
2022/01/26 07:46:17;;;;;;;47.78;27.00;;;;;;;-2.04;80.81;100532.00;1685621;82;20998;-70
2022/01/26 07:48:43;;;;;;;47.17;27.90;;;;;;;-2.03;81.07;100527.98;1689492;83;21558;-71
2022/01/26 07:51:09;;;;;;;40.15;22.82;;;;;;;-2.01;81.00;100528.71;1691564;83;21007;-71
2022/01/26 07:53:35;;;;;;;46.35;28.98;;;;;;;-1.96;80.99;100523.16;1699232;83;21015;-70
2022/01/26 07:56:01;;;;;;;44.27;26.68;;;;;;;-1.89;80.83;100531.44;1699228;83;21113;-73
2022/01/26 07:58:27;;;;;;;49.50;26.45;;;;;;;-1.85;80.89;100528.50;1698654;83;21073;-70
2022/01/26 08:00:54;;;;;;;48.70;26.00;;;;;;;-1.80;80.51;100532.13;1682237;83;21550;-70
2022/01/26 08:03:20;;;;;;;43.13;27.00;;;;;;;-1.78;80.03;100532.37;1675504;83;21068;-71
2022/01/26 08:05:47;;;;;;;39.45;24.75;;;;;;;-1.74;79.67;100534.80;1701484;84;21081;-70
2022/01/26 08:08:13;;;;;;;44.03;24.57;;;;;;;-1.72;79.82;100534.22;1691537;83;21061;-70
2022/01/26 08:10:40;;;;;;;39.92;24.70;;;;;;;-1.68;79.57;100529.14;1690892;83;21025;-70
2022/01/26 08:13:07;;;;;;;39.03;26.27;;;;;;;-1.61;79.13;100531.71;1658500;83;21125;-71
2022/01/26 08:15:33;;;;;;;37.73;23.22;;;;;;;-1.55;79.00;100540.44;1642065;86;21072;-72
2022/01/26 08:18:03;;;;;;;35.80;21.82;;;;;;;-1.48;78.91;100540.38;1631742;86;21141;-69
2022/01/26 08:20:29;;;;;;;34.13;21.43;;;;;;;-1.39;78.03;100548.07;1634589;86;21608;-71
2022/01/26 08:22:57;;;;;;;41.90;23.50;;;;;;;-1.39;78.12;100548.07;1665317;84;21048;-70
2022/01/26 08:25:24;;;;;;;39.77;21.53;;;;;;;-1.38;77.80;100545.80;1647481;85;21589;-71
2022/01/26 08:28:05;;;;;;;42.37;23.43;;;;;;;-1.43;78.11;100546.14;1697869;83;21004;-70
2022/01/26 08:30:24;;;;;;;40.77;24.17;;;;;;;-1.49;77.81;100548.33;1664857;85;21582;-71
2022/01/26 08:32:51;;;;;;;38.47;21.17;;;;;;;-1.48;77.79;100552.63;1670204;84;21086;-71
2022/01/26 08:35:17;;;;;;;35.90;21.60;;;;;;;-1.49;78.22;100543.09;1692371;83;21146;-72
2022/01/26 08:37:44;;;;;;;39.33;24.20;;;;;;;-1.44;78.20;100550.16;1680302;84;21066;-71
2022/01/26 08:40:11;;;;;;;32.60;21.20;;;;;;;-1.35;77.84;100548.22;1683792;84;21045;-70
2022/01/26 08:42:41;;;;;;;35.75;21.50;;;;;;;-1.28;77.78;100548.61;1670071;84;21493;-70
2022/01/26 08:45:08;;;;;;;32.83;20.03;;;;;;;-1.25;77.46;100552.33;1675492;84;21005;-71
2022/01/26 08:47:36;;;;;;;32.00;20.50;;;;;;;-1.20;77.38;100552.86;1677785;84;21541;-69
2022/01/26 08:50:05;;;;;;;40.43;25.30;;;;;;;-1.19;77.30;100552.76;1677362;85;21037;-69
2022/01/26 08:52:31;;;;;;;36.30;22.80;;;;;;;-1.15;76.97;100563.81;1681007;84;21102;-70
2022/01/26 08:54:57;;;;;;;;;;;;;;;-1.20;77.35;100562.84;1677420;84;21662;-69
2022/01/26 08:57:23;;;;;;;31.53;19.17;;;;;;;-1.18;77.06;100558.81;1665366;84;20141;-68
2022/01/26 08:59:50;;;;;;;37.48;21.95;;;;;;;-1.23;77.33;100566.97;1676398;84;21030;-69
2022/01/26 09:02:15;;;;;;;35.05;20.20;;;;;;;-1.23;77.31;100564.83;1675470;84;21100;-70
2022/01/26 09:04:42;;;;;;;26.42;16.73;;;;;;;-1.24;77.79;100560.08;1673722;84;21030;-69
2022/01/26 09:07:09;;;;;;;27.17;16.42;;;;;;;-1.18;77.25;100554.41;1694630;84;21751;-71
2022/01/26 09:09:43;;;;;;;33.50;20.70;;;;;;;-1.22;77.39;100552.13;1686987;84;21490;-69
2022/01/26 09:12:07;;;;;;;32.00;18.47;;;;;;;-1.19;77.26;100554.52;1678998;83;21135;-71
2022/01/26 09:14:35;;;;;;;27.87;17.17;;;;;;;-1.20;77.35;100546.31;1720550;83;21018;-73
2022/01/26 09:17:02;;;;;;;29.05;19.00;;;;;;;-1.16;77.34;100550.39;1712481;82;20989;-70
2022/01/26 09:19:31;;;;;;;29.50;17.90;;;;;;;-1.09;77.10;100552.08;1710445;83;20997;-68
2022/01/26 09:22:05;;;;;;;25.47;14.97;;;;;;;-1.07;77.01;100553.67;1709899;82;21053;-70
2022/01/26 09:24:35;;;;;;;27.40;17.53;;;;;;;-1.04;76.73;100548.20;1709736;83;21100;-68
2022/01/26 09:27:03;;;;;;;29.97;18.13;;;;;;;-0.99;76.77;100542.66;1718039;82;21030;-69
2022/01/26 09:29:31;;;;;;;32.97;18.90;;;;;;;-0.97;76.59;100547.79;1703760;82;21025;-68
2022/01/26 09:31:59;;;;;;;30.73;19.17;;;;;;;-0.94;76.35;100551.47;1711213;82;21038;-70
2022/01/26 09:34:29;;;;;;;28.10;18.30;;;;;;;-0.94;76.64;100552.78;1697249;82;20998;-70
2022/01/26 09:36:57;;;;;;;26.33;17.10;;;;;;;-0.95;76.81;100548.03;1677745;84;21057;-69
2022/01/26 09:39:24;;;;;;;24.63;16.33;;;;;;;-0.94;76.92;100544.94;1682204;84;21076;-69
2022/01/26 09:41:52;;;;;;;28.13;18.50;;;;;;;-0.95;77.06;100548.52;1671589;84;21030;-69
2022/01/26 09:44:21;;;;;;;29.20;17.40;;;;;;;-0.89;76.86;100555.92;1679601;84;21076;-68
2022/01/26 09:46:48;;;;;;;25.27;15.17;;;;;;;-0.87;77.05;100550.09;1683152;84;21513;-69
2022/01/26 09:49:16;;;;;;;29.73;17.43;;;;;;;-0.79;76.90;100560.39;1681900;84;21184;-72
2022/01/26 09:51:48;;;;;;;27.27;17.57;;;;;;;-0.79;76.21;100556.95;1680138;84;21004;-69
2022/01/26 09:54:17;;;;;;;27.93;15.97;;;;;;;-0.86;76.35;100554.41;1670897;84;21057;-68
2022/01/26 09:56:48;;;;;;;24.60;14.77;;;;;;;-0.89;76.45;100559.84;1678974;84;21034;-71
2022/01/26 09:59:17;;;;;;;37.70;20.23;;;;;;;-0.91;76.26;100556.50;1673112;84;21044;-69
2022/01/26 10:01:47;;;;;;;24.53;15.30;;;;;;;-0.93;76.42;100556.61;1677392;84;21017;-72
2022/01/26 10:04:34;;;;;;;25.07;15.03;;;;;;;-0.92;76.69;100556.98;1685300;84;21067;-70
2022/01/26 10:18:14;;;;;;;21.97;13.00;;;;;;;-1.08;76.86;100558.52;1671571;85;21065;-72
2022/01/26 10:20:49;;;;;;;21.00;13.63;;;;;;;-1.02;76.44;100553.33;1660523;85;21141;-70
2022/01/26 10:23:21;;;;;;;21.37;14.13;;;;;;;-1.01;75.94;100555.02;1646811;85;21031;-72
2022/01/26 10:26:07;;;;;;;22.07;14.47;;;;;;;-1.00;75.84;100548.38;1664964;84;21078;-70
2022/01/26 10:28:56;;;;;;;22.67;13.10;;;;;;;-0.95;76.04;100551.12;1647451;85;21540;-73
2022/01/26 10:31:36;;;;;;;19.00;12.43;;;;;;;-0.92;75.60;100555.67;1683830;83;21488;-70
2022/01/26 10:34:10;;;;;;;21.27;11.97;;;;;;;-0.91;75.18;100555.20;1669266;83;21045;-73
2022/01/26 10:36:40;;;;;;;18.27;11.77;;;;;;;-0.86;75.22;100551.78;1670208;84;20974;-68
2022/01/26 10:39:27;;;;;;;17.03;12.23;;;;;;;-0.80;74.96;100550.86;1656285;85;21042;-71
2022/01/26 10:41:51;;;;;;;17.77;11.47;;;;;;;-0.73;74.04;100551.27;1664757;84;21077;-70
2022/01/26 10:44:18;;;;;;;15.73;9.67;;;;;;;-0.68;73.79;100550.47;1674438;84;21018;-70
2022/01/26 10:46:45;;;;;;;23.27;11.87;;;;;;;-0.66;74.08;100538.56;1668309;84;21059;-71
2022/01/26 10:49:43;;;;;;;14.67;10.67;;;;;;;-0.62;74.01;100547.89;1659861;84;21069;-72
2022/01/26 10:52:01;;;;;;;16.23;11.33;;;;;;;-0.54;73.65;100543.40;1659611;85;21035;-74
2022/01/26 10:57:01;;;;;;;17.30;11.30;;;;;;;-0.44;72.99;100541.77;1653032;85;21069;-72
2022/01/26 10:59:30;;;;;;;21.97;13.10;;;;;;;-0.37;72.99;100548.23;1696756;83;22296;-70
2022/01/26 11:01:59;;;;;;;14.60;9.83;;;;;;;-0.29;72.75;100549.80;1668490;83;21135;-71
2022/01/26 11:04:23;;;;;;;18.00;11.87;;;;;;;-0.26;72.01;100543.52;1685098;83;21054;-72
2022/01/26 11:06:52;;;;;;;15.08;10.63;;;;;;;-0.23;72.52;100545.89;1695679;83;21124;-70
2022/01/26 11:09:23;;;;;;;19.50;11.73;;;;;;;-0.20;72.25;100549.13;1669058;84;20999;-69
2022/01/26 11:12:05;;;;;;;17.57;11.77;;;;;;;-0.12;71.80;100551.66;1683928;83;21564;-70
2022/01/26 11:14:52;;;;;;;16.10;10.27;;;;;;;-0.15;71.34;100544.02;1685260;84;21272;-77
2022/01/26 11:17:34;;;;;;;16.87;10.82;;;;;;;-0.64;71.09;100483.84;1685499;84;21055;-73
2022/01/26 11:20:03;;;;;;;13.17;9.40;;;;;;;-0.31;71.42;100545.16;1678799;83;21043;-72
2022/01/26 11:22:32;;;;;;;15.70;7.27;;;;;;;-0.31;71.80;100539.91;1678332;83;21080;-71
2022/01/26 11:25:10;;;;;;;14.23;9.43;;;;;;;-0.31;71.50;100546.46;1676116;84;21133;-73
2022/01/26 11:27:41;;;;;;;14.00;9.97;;;;;;;-0.35;70.97;100546.33;1702751;83;21498;-71
2022/01/26 11:30:19;;;;;;;16.20;10.70;;;;;;;-0.35;71.34;100548.13;1669845;83;21720;-69
2022/01/26 11:32:52;;;;;;;14.03;8.27;;;;;;;-0.33;71.34;100550.98;1672597;84;21045;-72
2022/01/26 11:35:20;;;;;;;13.47;9.97;;;;;;;-0.27;71.13;100553.14;1686925;84;20991;-72
2022/01/26 11:38:15;;;;;;;14.07;9.70;;;;;;;-0.25;70.56;100546.00;1676182;83;20998;-74
2022/01/26 11:46:36;;;;;;;17.57;9.30;;;;;;;-0.25;70.47;100548.63;1690223;83;21009;-71
2022/01/26 11:49:11;;;;;;;12.77;9.00;;;;;;;-0.22;70.45;100549.72;1686128;83;21113;-70
2022/01/26 11:51:48;;;;;;;11.33;7.57;;;;;;;-0.26;69.90;100543.52;1687670;83;21117;-72
2022/01/26 11:54:24;;;;;;;14.10;7.75;;;;;;;-0.26;68.49;100533.88;1681423;84;21054;-71
2022/01/26 11:56:59;;;;;;;13.62;8.60;;;;;;;-0.23;68.73;100543.27;1682090;84;21048;-73
2022/01/26 11:59:28;;;;;;;11.43;7.07;;;;;;;-0.24;68.30;100543.76;1669008;84;20992;-71
2022/01/26 12:02:02;;;;;;;17.23;9.87;;;;;;;-0.24;68.14;100546.38;1669011;84;21015;-72
2022/01/26 12:04:24;;;;;;;11.97;7.47;;;;;;;-0.23;67.32;100543.27;1695228;83;21054;-71
2022/01/26 12:06:58;;;;;;;9.67;7.20;;;;;;;-0.26;66.46;100538.28;1689973;84;21056;-73
2022/01/26 12:09:19;;;;;;;9.77;5.93;;;;;;;-0.29;67.00;100541.95;1669024;84;21019;-73
2022/01/26 12:11:54;;;;;;;8.10;6.33;;;;;;;-0.24;67.02;100548.17;1696263;83;21058;-71
2022/01/26 12:14:21;;;;;;;12.47;6.50;;;;;;;-0.22;65.60;100549.72;1651891;85;21196;-79
2022/01/26 12:16:52;;;;;;;6.50;4.33;;;;;;;-0.24;63.73;100556.86;1635527;86;21579;-72
2022/01/26 12:19:33;;;;;;;7.07;4.40;;;;;;;-0.23;63.56;100551.14;1661019;85;21042;-71
2022/01/26 12:36:52;;;;;;;7.70;5.53;;;;;;;-0.42;62.41;100560.34;1649061;85;21124;-71
2022/01/26 12:39:04;;;;;;;8.83;5.53;;;;;;;-0.37;62.89;100565.26;1641226;85;20994;-72
2022/01/26 12:41:33;;;;;;;6.73;4.40;;;;;;;-0.37;62.57;100570.50;1639656;85;21619;-71
2022/01/26 12:44:09;;;;;;;10.40;5.10;;;;;;;-0.35;62.51;100569.91;1633928;85;21083;-73
2022/01/26 12:46:36;;;;;;;;;;;;;;;-0.36;62.71;100575.25;1635457;85;21045;-71
2022/01/26 12:49:10;;;;;;;8.20;5.40;;;;;;;-0.38;61.41;100574.53;1642508;85;20451;-74
2022/01/26 12:51:51;;;;;;;6.20;4.90;;;;;;;-0.43;61.91;100574.40;1643954;85;21149;-70
2022/01/26 12:54:19;;;;;;;5.03;3.90;;;;;;;-0.45;61.58;100575.47;1646682;85;21124;-72
2022/01/26 12:56:45;;;;;;;4.50;3.90;;;;;;;-0.44;60.79;100577.13;1681319;82;21105;-70
2022/01/26 12:59:16;;;;;;;4.40;3.47;;;;;;;-0.45;60.50;100572.84;1700623;82;21016;-74
2022/01/26 13:01:45;;;;;;;7.50;4.60;;;;;;;-0.42;60.10;100575.22;1681139;84;21494;-72
2022/01/26 13:04:14;;;;;;;5.47;4.33;;;;;;;-0.40;60.00;100576.80;1671892;84;21006;-70
2022/01/26 13:06:47;;;;;;;4.50;3.00;;;;;;;-0.33;59.73;100577.17;1662566;84;21616;-71
2022/01/26 13:09:25;;;;;;;4.00;3.23;;;;;;;-0.33;57.36;100578.48;1667980;84;21026;-70
2022/01/26 13:11:51;;;;;;;4.03;3.30;;;;;;;-0.34;56.38;100582.52;1677193;83;21085;-71
2022/01/26 13:14:37;;;;;;;4.60;3.30;;;;;;;-0.38;57.38;100573.22;1696977;84;21065;-71
2022/01/26 13:25:18;;;;;;;8.60;3.67;;;;;;;-0.50;56.67;100590.67;1690825;84;21713;-70
2022/01/26 13:35:45;;;;;;;9.23;5.10;;;;;;;-0.59;57.49;100591.67;1689888;83;21007;-70
2022/01/26 13:38:23;;;;;;;7.10;4.07;;;;;;;-0.57;57.70;100583.72;1690184;83;21215;-70
2022/01/26 13:49:19;;;;;;;12.47;5.77;;;;;;;-0.43;59.01;100597.14;1630332;87;21088;-68
2022/01/26 13:51:58;;;;;;;8.93;5.63;;;;;;;-0.44;59.51;100599.38;1638052;85;21086;-67
2022/01/26 13:56:55;;;;;;;5.33;3.77;;;;;;;-0.43;59.29;100604.52;1665457;84;21622;-71